createdAt,value
2019-03-27T00:03:59.312Z,9.20
2019-03-27T00:08:00.187Z,9.00
2019-03-27T00:12:01.209Z,9.60
2019-03-27T00:16:02.480Z,9.50
2019-03-27T00:20:08.902Z,9.60
2019-03-27T00:24:09.932Z,9.90
2019-03-27T00:28:10.830Z,9.90
2019-03-27T00:32:11.807Z,9.80
2019-03-27T00:36:12.694Z,9.80
2019-03-27T00:40:13.800Z,9.30
2019-03-27T00:44:14.670Z,9.60
2019-03-27T00:48:15.572Z,9.60
2019-03-27T00:52:16.467Z,9.60
2019-03-27T00:56:17.453Z,9.50
2019-03-27T01:00:25.733Z,9.60
2019-03-27T01:04:26.706Z,9.30
2019-03-27T01:08:27.700Z,9.20
2019-03-27T01:12:28.690Z,9.00
2019-03-27T01:16:29.587Z,8.70
2019-03-27T01:20:30.464Z,9.00
2019-03-27T01:24:31.365Z,8.90
2019-03-27T01:28:32.333Z,8.80
2019-03-27T01:32:33.400Z,9.10
2019-03-27T01:36:34.309Z,8.60
2019-03-27T01:40:35.194Z,8.90
2019-03-27T01:44:36.116Z,8.80
2019-03-27T01:48:37.211Z,8.80
2019-03-27T01:52:38.122Z,8.50
2019-03-27T01:56:39.176Z,8.70
2019-03-27T02:00:40.382Z,8.60
2019-03-27T02:04:41.270Z,8.60
2019-03-27T02:08:42.176Z,8.40
2019-03-27T02:12:43.146Z,8.70
2019-03-27T02:16:44.115Z,8.70
2019-03-27T02:20:45.134Z,8.90
2019-03-27T02:24:46.133Z,8.80
2019-03-27T02:28:47.035Z,8.60
2019-03-27T02:32:47.953Z,8.60
2019-03-27T02:36:49.034Z,8.30
2019-03-27T02:40:50.053Z,8.20
2019-03-27T02:44:50.979Z,8.20
2019-03-27T02:48:51.827Z,7.70
2019-03-27T02:52:52.837Z,7.00
2019-03-27T02:56:53.913Z,6.50
2019-03-27T03:00:54.944Z,7.10
2019-03-27T03:04:55.937Z,7.60
2019-03-27T03:08:56.876Z,7.70
2019-03-27T03:12:57.774Z,7.70
2019-03-27T03:16:58.752Z,7.60
2019-03-27T03:20:59.659Z,7.90
2019-03-27T03:25:00.714Z,7.60
2019-03-27T03:29:01.625Z,7.20
2019-03-27T03:33:02.620Z,7.20
2019-03-27T03:37:03.585Z,7.40
2019-03-27T03:41:04.571Z,7.30
2019-03-27T03:45:06.170Z,7.10
2019-03-27T03:49:07.045Z,6.80
2019-03-27T03:53:10.362Z,6.80
2019-03-27T03:57:11.758Z,6.40
2019-03-27T04:01:14.251Z,7.00
2019-03-27T04:05:18.912Z,7.10
2019-03-27T04:09:19.839Z,7.00
2019-03-27T04:13:20.800Z,6.50
2019-03-27T04:17:21.674Z,6.50
2019-03-27T04:21:26.703Z,6.50
2019-03-27T04:25:25.421Z,6.20
2019-03-27T04:29:26.413Z,6.40
2019-03-27T04:33:27.465Z,6.30
2019-03-27T04:37:28.363Z,6.20
2019-03-27T04:41:29.218Z,6.20
2019-03-27T04:45:30.361Z,5.90
2019-03-27T04:49:31.520Z,6.40
2019-03-27T04:53:32.449Z,6.40
2019-03-27T04:57:33.511Z,6.60
2019-03-27T05:01:34.388Z,6.60
2019-03-27T05:05:35.263Z,6.50
2019-03-27T05:09:36.249Z,6.50
2019-03-27T05:13:37.225Z,6.30
2019-03-27T05:17:45.647Z,6.20
2019-03-27T05:21:40.977Z,6.40
2019-03-27T05:25:41.864Z,6.40
2019-03-27T05:29:42.858Z,6.40
2019-03-27T05:33:43.700Z,6.20
2019-03-27T05:37:44.611Z,6.40
2019-03-27T05:41:45.535Z,6.50
2019-03-27T05:45:46.416Z,6.60
2019-03-27T05:49:47.414Z,6.70
2019-03-27T05:53:48.289Z,6.80
2019-03-27T05:57:49.174Z,7.00
2019-03-27T06:01:50.163Z,7.20
2019-03-27T06:05:51.029Z,7.30
2019-03-27T06:09:52.028Z,7.40
2019-03-27T06:13:53.012Z,7.70
2019-03-27T06:17:53.926Z,7.90
2019-03-27T06:21:54.859Z,8.30
2019-03-27T06:25:55.698Z,8.30
2019-03-27T06:29:56.588Z,8.20
2019-03-27T06:33:57.472Z,7.50
2019-03-27T06:37:58.392Z,8.30
2019-03-27T06:41:59.363Z,8.90
2019-03-27T06:46:00.323Z,9.20
2019-03-27T06:50:01.421Z,9.90
2019-03-27T06:54:02.532Z,10.00
2019-03-27T06:58:03.414Z,10.70
2019-03-27T07:02:04.471Z,11.30
2019-03-27T07:06:05.458Z,11.60
2019-03-27T07:10:06.738Z,12.00
2019-03-27T07:14:07.662Z,12.40
2019-03-27T07:18:08.642Z,13.10
2019-03-27T07:22:09.628Z,13.60
2019-03-27T07:26:10.549Z,13.60
2019-03-27T07:30:11.867Z,13.60
2019-03-27T07:34:12.918Z,14.20
2019-03-27T07:38:13.778Z,14.90
2019-03-27T07:42:14.643Z,13.70
2019-03-27T07:46:15.711Z,13.60
2019-03-27T07:50:16.718Z,13.20
2019-03-27T07:54:17.803Z,11.80
2019-03-27T07:58:18.844Z,11.10
2019-03-27T08:02:19.899Z,12.70
2019-03-27T08:06:20.802Z,13.40
2019-03-27T08:10:21.658Z,12.50
2019-03-27T08:14:22.638Z,13.00
2019-03-27T08:18:23.562Z,11.50
2019-03-27T08:22:24.454Z,12.90
2019-03-27T08:26:25.328Z,12.40
2019-03-27T08:30:26.241Z,12.00
2019-03-27T08:34:27.146Z,10.00
2019-03-27T08:38:28.039Z,12.50
2019-03-27T08:42:28.918Z,12.50
2019-03-27T08:46:29.942Z,14.40
2019-03-27T08:50:30.895Z,14.30
2019-03-27T08:54:31.897Z,14.50
2019-03-27T08:58:32.995Z,16.10
2019-03-27T09:02:34.086Z,16.70
2019-03-27T09:06:35.157Z,17.60
2019-03-27T09:10:36.138Z,18.20
2019-03-27T09:14:37.133Z,17.10
2019-03-27T09:18:38.127Z,18.10
2019-03-27T09:22:39.018Z,18.30
2019-03-27T09:26:39.893Z,18.10
2019-03-27T09:30:40.776Z,16.40
2019-03-27T09:34:41.680Z,13.50
2019-03-27T09:38:42.697Z,11.60
2019-03-27T09:42:43.578Z,12.60
2019-03-27T09:46:44.434Z,14.70
2019-03-27T09:50:45.316Z,14.90
2019-03-27T09:54:46.251Z,14.00
2019-03-27T09:58:47.110Z,11.90
2019-03-27T10:02:47.972Z,11.90
2019-03-27T10:06:48.877Z,12.90
2019-03-27T10:10:49.958Z,13.10
2019-03-27T10:14:50.844Z,14.30
2019-03-27T10:18:51.749Z,14.40
2019-03-27T10:22:52.616Z,15.20
2019-03-27T10:26:53.487Z,15.50
2019-03-27T10:30:54.358Z,16.30
2019-03-27T10:34:55.252Z,17.00
2019-03-27T10:38:56.204Z,17.90
2019-03-27T10:42:57.096Z,18.00
2019-03-27T10:46:58.085Z,17.80
2019-03-27T10:50:58.977Z,16.60
2019-03-27T10:54:59.977Z,15.70
2019-03-27T10:59:00.850Z,14.40
2019-03-27T11:03:01.792Z,15.00
2019-03-27T11:07:02.990Z,15.50
2019-03-27T11:11:03.933Z,15.80
2019-03-27T11:15:08.827Z,16.30
2019-03-27T11:19:09.826Z,17.00
2019-03-27T11:23:10.732Z,17.50
2019-03-27T11:27:11.726Z,18.80
2019-03-27T11:31:12.751Z,18.60
2019-03-27T11:35:13.821Z,18.70
2019-03-27T11:39:14.711Z,19.00
2019-03-27T11:43:15.599Z,18.10
2019-03-27T11:47:16.519Z,17.90
2019-03-27T11:51:17.504Z,17.60
2019-03-27T11:55:18.516Z,15.50
2019-03-27T11:59:19.505Z,15.40
2019-03-27T12:03:20.550Z,12.20
2019-03-27T12:07:21.805Z,11.30
2019-03-27T12:11:22.739Z,11.60
2019-03-27T12:15:38.027Z,13.50
2019-03-27T12:19:38.926Z,12.40
2019-03-27T12:23:39.805Z,12.70
2019-03-27T12:27:40.785Z,11.90
2019-03-27T12:31:41.676Z,13.70
2019-03-27T12:35:42.829Z,15.50
2019-03-27T12:39:43.746Z,15.60
2019-03-27T12:43:44.671Z,17.00
2019-03-27T12:47:45.825Z,17.40
2019-03-27T12:51:46.833Z,17.80
2019-03-27T12:55:47.846Z,18.60
2019-03-27T12:59:49.160Z,19.10
2019-03-27T13:03:50.474Z,15.60
2019-03-27T13:07:52.350Z,16.10
2019-03-27T13:11:53.316Z,16.50
2019-03-27T13:15:54.441Z,14.20
2019-03-27T13:19:55.396Z,16.80
2019-03-27T13:23:56.260Z,18.30
2019-03-27T13:27:57.132Z,18.20
2019-03-27T13:31:58.144Z,17.10
2019-03-27T13:35:59.157Z,16.60
2019-03-27T13:40:00.221Z,17.40
2019-03-27T13:44:01.623Z,17.80
2019-03-27T13:48:02.719Z,18.30
2019-03-27T13:52:03.826Z,18.10
2019-03-27T13:56:04.936Z,18.00
2019-03-27T14:00:08.230Z,17.30
2019-03-27T14:04:09.174Z,15.30
2019-03-27T14:08:10.284Z,16.30
2019-03-27T14:12:11.289Z,15.90
2019-03-27T14:16:13.214Z,14.80
2019-03-27T14:20:14.655Z,14.80
2019-03-27T14:24:15.643Z,16.80
2019-03-27T14:28:17.322Z,16.70
2019-03-27T14:32:18.401Z,17.30
2019-03-27T14:36:19.546Z,18.50
2019-03-27T14:40:20.762Z,19.00
2019-03-27T14:44:21.740Z,20.00
2019-03-27T14:48:22.755Z,19.00
2019-03-27T14:52:24.228Z,18.90
2019-03-27T14:56:25.189Z,19.50
2019-03-27T15:00:27.267Z,19.50
2019-03-27T15:04:28.129Z,18.40
2019-03-27T15:08:29.138Z,18.40
2019-03-27T15:12:30.011Z,19.00
2019-03-27T15:16:31.341Z,19.90
2019-03-27T15:20:32.355Z,20.30
2019-03-27T15:24:33.337Z,19.10
2019-03-27T15:28:34.283Z,15.60
2019-03-27T15:32:35.426Z,15.50
2019-03-27T15:36:36.320Z,14.20
2019-03-27T15:41:01.641Z,15.80
2019-03-27T15:45:07.845Z,16.50
2019-03-27T15:49:09.612Z,16.70
2019-03-27T15:53:10.823Z,15.90
2019-03-27T15:57:12.002Z,15.30
2019-03-27T16:01:13.301Z,15.20
2019-03-27T16:05:14.277Z,14.80
2019-03-27T16:09:17.748Z,15.80
2019-03-27T16:13:19.049Z,15.90
2019-03-27T16:17:20.195Z,16.70
2019-03-27T16:21:21.298Z,16.40
2019-03-27T16:25:22.305Z,16.00
2019-03-27T16:29:23.244Z,15.80
2019-03-27T16:33:24.112Z,16.10
2019-03-27T16:37:25.008Z,16.50
2019-03-27T16:41:26.097Z,16.00
2019-03-27T16:45:27.218Z,15.90
2019-03-27T16:49:28.255Z,16.20
2019-03-27T16:53:29.354Z,16.30
2019-03-27T16:57:30.342Z,16.10
2019-03-27T17:01:31.259Z,16.40
2019-03-27T17:05:32.360Z,16.00
2019-03-27T17:09:33.499Z,15.90
2019-03-27T17:13:34.533Z,15.70
2019-03-27T17:17:35.595Z,15.70
2019-03-27T17:21:36.689Z,15.60
2019-03-27T17:25:37.785Z,15.20
2019-03-27T17:29:38.924Z,15.70
2019-03-27T17:33:39.909Z,15.50
2019-03-27T17:37:40.832Z,15.40
2019-03-27T17:41:41.994Z,15.10
2019-03-27T17:45:42.954Z,14.80
2019-03-27T17:49:43.849Z,14.60
2019-03-27T17:53:44.867Z,14.30
2019-03-27T17:57:46.278Z,14.40
2019-03-27T18:01:47.169Z,14.10
2019-03-27T18:05:48.357Z,13.90
2019-03-27T18:09:49.352Z,13.90
2019-03-27T18:13:50.606Z,13.80
2019-03-27T18:17:51.603Z,13.70
2019-03-27T18:22:06.773Z,13.80
2019-03-27T18:25:56.771Z,13.70
2019-03-27T18:29:57.828Z,13.60
2019-03-27T18:33:59.056Z,13.30
2019-03-27T18:38:00.113Z,12.90
2019-03-27T18:42:04.243Z,11.80
2019-03-27T18:46:05.517Z,12.40
2019-03-27T18:50:07.107Z,12.60
2019-03-27T18:54:08.467Z,12.50
2019-03-27T18:58:09.479Z,12.50
2019-03-27T19:02:10.501Z,12.30
2019-03-27T19:06:12.126Z,12.10
2019-03-27T19:10:13.312Z,12.00
2019-03-27T19:14:14.408Z,11.20
2019-03-27T19:18:15.463Z,10.90
2019-03-27T19:22:16.647Z,10.40
2019-03-27T19:26:17.972Z,10.80
2019-03-27T19:30:21.177Z,11.50
2019-03-27T19:34:22.141Z,11.50
2019-03-27T19:38:25.536Z,11.50
2019-03-27T19:42:26.522Z,11.40
2019-03-27T19:46:27.577Z,11.00
2019-03-27T19:50:28.726Z,11.10
2019-03-27T19:54:29.804Z,11.00
2019-03-27T19:58:30.832Z,9.50
2019-03-27T20:02:31.742Z,10.00
2019-03-27T20:06:32.841Z,10.50
2019-03-27T20:10:33.973Z,10.50
2019-03-27T20:14:34.834Z,10.50
2019-03-27T20:18:35.877Z,10.20
2019-03-27T20:22:37.286Z,9.60
2019-03-27T20:26:38.898Z,9.70
2019-03-27T20:30:39.928Z,9.60
2019-03-27T20:34:41.045Z,10.20
2019-03-27T20:38:44.017Z,9.80
2019-03-27T20:42:45.104Z,10.00
2019-03-27T20:46:46.193Z,10.20
2019-03-27T20:50:47.136Z,10.10
2019-03-27T20:54:54.946Z,9.90
2019-03-27T20:58:51.034Z,9.70
2019-03-27T21:02:52.151Z,9.90
2019-03-27T21:06:53.370Z,9.70
2019-03-27T21:10:54.489Z,8.90
2019-03-27T21:14:55.512Z,9.20
2019-03-27T21:18:56.686Z,9.40
2019-03-27T21:22:57.952Z,9.50
2019-03-27T21:26:58.932Z,9.40
2019-03-27T21:30:59.803Z,9.00
2019-03-27T21:35:00.708Z,9.10
2019-03-27T21:39:01.732Z,9.10
2019-03-27T21:43:03.215Z,8.90
2019-03-27T21:47:04.234Z,9.00
2019-03-27T21:51:05.220Z,8.60
2019-03-27T21:55:21.454Z,8.50
2019-03-27T21:59:11.810Z,8.20
2019-03-27T22:03:12.771Z,8.10
2019-03-27T22:07:13.764Z,8.00
2019-03-27T22:11:16.226Z,8.30
2019-03-27T22:15:17.200Z,8.40
2019-03-27T22:19:18.195Z,8.70
2019-03-27T22:23:19.088Z,8.80
2019-03-27T22:27:20.606Z,8.70
2019-03-27T22:31:21.582Z,8.10
2019-03-27T22:35:22.570Z,8.10
2019-03-27T22:39:23.550Z,8.50
2019-03-27T22:43:24.526Z,8.70
2019-03-27T22:47:25.419Z,8.40
2019-03-27T22:51:28.765Z,8.20
2019-03-27T22:55:29.669Z,8.50
2019-03-27T22:59:30.632Z,8.80
2019-03-27T23:03:31.522Z,8.60
2019-03-27T23:07:32.417Z,8.30
2019-03-27T23:11:33.402Z,7.80
2019-03-27T23:15:34.328Z,7.30
2019-03-27T23:19:35.310Z,7.00
2019-03-27T23:23:36.276Z,8.10
2019-03-27T23:27:37.272Z,8.10
2019-03-27T23:31:38.436Z,8.30
2019-03-27T23:35:39.524Z,7.60
2019-03-27T23:39:40.497Z,7.20
2019-03-27T23:43:41.355Z,7.60
2019-03-27T23:47:42.273Z,8.20
2019-03-27T23:51:43.135Z,7.90
2019-03-27T23:55:44.032Z,7.70
2019-03-27T23:59:44.916Z,6.10
